Lansing, KS (66043)

2:50 PM CDT on April 27, 2017 (GMT -0500)
Cooper | | Change Station

Elev 0 ft 39.29 °N, 94.94 °W | Updated 1 second ago

Partly Cloudy
Partly Cloudy
64.9 °F
Feels Like 64.9 °F
N
3.1
Wind Variable Wind from ESE
Gusts 6.9 mph

Today
High -- | Low -- °F
--% Chance of Precip.
Yesterday
High -- | Low -- °F
Precip. -- in
Pressure 29.72 in
Visibility 10.0 miles
Clouds Few 4000 ft
Few 13000 ft
Mostly Cloudy 20000 ft
Dew Point 50 °F
Humidity 57%
Rainfall 0.00 in
Snow Depth Not available.
6:25 AM 8:09 PM
Waxing Crescent, 3% visible
METAR KMCI 271853Z 24006KT 10SM FEW040 FEW130 BKN200 15/03 A2972 RMK AO2 SLP064 T01500033
Pressure 29.72 in
Visibility 10.0 miles
Clouds Few 4000 ft
Few 13000 ft
Mostly Cloudy 20000 ft
Dew Point 50 °F
Humidity 57%
Rainfall 0.00 in
Snow Depth Not available.
6:25 AM 8:09 PM
Waxing Crescent, 3% visible
METAR KMCI 271853Z 24006KT 10SM FEW040 FEW130 BKN200 15/03 A2972 RMK AO2 SLP064 T01500033

Get Severe Weather Alerts

Thanks for signing up!

Be on the lookout for a verification email in your inbox.

You'll start receiving the daily forecast at 8 AM.

×

10-Day Weather Forecast

Almanac

Astronomy

Apr. 27, 2017 Rise Set
Actual Time
Civil Twilight
Nautical Twilight
Astronomical Twilight
Moon
Length of Visible Light
Length of Day
Tomorrow will be .
, % of the Moon is Illuminated

Today's Extremes

State Highs State Lows

Community

WunderPhotos

WunderBlog® & News

Nearby

Air Quality

  Air Quality AQ Index Pollutant
Not available.

Snow Depth

Station Depth Elevation

Earthquake Activity

City Distance Mag. Time & Date
Minimum magnitude displayed is 2.5.

Coastal Water Temperatures

Place Temperature

Stations

Nearby Weather Stations

Station Location Temp. Windchill Dew Point Humidity Wind Precip. Elev Updated Type
                   

Watches & Warnings

There are currently no watches in effect.